createdAt,value
2024-01-11T00:00:14.954Z,103636.41
2024-01-11T00:02:46.709Z,103625.75
2024-01-11T00:05:17.010Z,103626.63
2024-01-11T00:07:54.344Z,103631.75
2024-01-11T00:10:27.709Z,103618.63
2024-01-11T00:12:58.090Z,103623.75
2024-01-11T00:15:32.554Z,103642.22
2024-01-11T00:18:02.363Z,103620.50
2024-01-11T00:20:29.436Z,103614.22
2024-01-11T00:23:05.770Z,103615.88
2024-01-11T00:25:32.895Z,103627.34
2024-01-11T00:28:00.256Z,103611.97
2024-01-11T00:30:27.658Z,103625.47
2024-01-11T00:32:54.917Z,103642.22
2024-01-11T00:35:22.143Z,103633.94
2024-01-11T00:37:49.487Z,103608.69
2024-01-11T00:40:17.859Z,103625.28
2024-01-11T00:42:45.834Z,103633.00
2024-01-11T00:45:12.648Z,103615.16
2024-01-11T00:47:40.402Z,103648.66
2024-01-11T00:50:09.876Z,103642.47
2024-01-11T00:52:36.657Z,103613.28
2024-01-11T00:55:04.852Z,103624.56
2024-01-11T00:57:32.187Z,103622.88
2024-01-11T00:59:59.470Z,103614.84
2024-01-11T01:02:26.641Z,103633.34
2024-01-11T01:04:54.056Z,103625.34
2024-01-11T01:07:21.299Z,103617.38
2024-01-11T01:09:48.254Z,103628.75
2024-01-11T01:12:19.479Z,103630.31
2024-01-11T01:14:48.022Z,103639.28
2024-01-11T01:17:18.419Z,103642.38
2024-01-11T01:19:46.856Z,103624.84
2024-01-11T01:22:15.284Z,103645.69
2024-01-11T01:24:42.657Z,103653.63
2024-01-11T01:27:11.209Z,103664.03
2024-01-11T01:29:38.453Z,103628.97
2024-01-11T01:32:06.489Z,103647.97
2024-01-11T01:34:33.970Z,103634.81
2024-01-11T01:37:00.817Z,103643.50
2024-01-11T01:39:28.371Z,103648.25
2024-01-11T01:41:58.112Z,103628.94
2024-01-11T01:44:25.301Z,103659.50
2024-01-11T01:46:54.246Z,103669.03
2024-01-11T01:49:24.064Z,103677.03
2024-01-11T01:51:55.472Z,103668.09
2024-01-11T01:54:25.064Z,103672.75
2024-01-11T01:56:53.509Z,103670.47
2024-01-11T01:59:24.383Z,103661.69
2024-01-11T02:01:54.865Z,103660.50
2024-01-11T02:04:25.157Z,103677.72
2024-01-11T02:07:09.928Z,103677.84
2024-01-11T02:09:58.270Z,103664.00
2024-01-11T02:12:26.526Z,103643.63
2024-01-11T02:14:55.262Z,103654.75
2024-01-11T02:17:22.592Z,103669.75
2024-01-11T02:19:49.972Z,103667.34
2024-01-11T02:22:25.813Z,103672.59
2024-01-11T02:24:54.320Z,103677.31
2024-01-11T02:27:21.733Z,103665.38
2024-01-11T02:29:48.787Z,103652.19
2024-01-11T02:32:20.049Z,103649.47
2024-01-11T02:34:47.957Z,103652.19
2024-01-11T02:37:21.430Z,103656.72
2024-01-11T02:39:50.773Z,103654.72
2024-01-11T02:42:21.422Z,103664.38
2024-01-11T02:44:49.278Z,103662.59
2024-01-11T02:47:21.292Z,103656.47
2024-01-11T02:49:48.594Z,103641.94
2024-01-11T02:52:15.677Z,103656.69
2024-01-11T02:54:44.151Z,103650.06
2024-01-11T02:57:13.250Z,103656.06
2024-01-11T02:59:42.310Z,103658.09
2024-01-11T03:02:09.728Z,103650.09
2024-01-11T03:04:36.516Z,103673.94
2024-01-11T03:07:20.381Z,103676.13
2024-01-11T03:09:47.653Z,103660.41
2024-01-11T03:12:15.082Z,103656.00
2024-01-11T03:14:42.097Z,103663.81
2024-01-11T03:17:09.911Z,103675.25
2024-01-11T03:19:44.719Z,103656.50
2024-01-11T03:22:22.959Z,103663.13
2024-01-11T03:25:08.233Z,103659.47
2024-01-11T03:27:41.591Z,103637.81
2024-01-11T03:30:09.856Z,103661.53
2024-01-11T03:32:37.659Z,103653.28
2024-01-11T03:35:04.791Z,103666.53
2024-01-11T03:37:31.934Z,103658.75
2024-01-11T03:39:58.937Z,103641.16
2024-01-11T03:42:26.042Z,103654.81
2024-01-11T03:44:54.611Z,103659.47
2024-01-11T03:47:24.872Z,103674.13
2024-01-11T03:49:52.105Z,103651.28
2024-01-11T03:52:31.627Z,103667.19
2024-01-11T03:54:59.176Z,103687.13
2024-01-11T03:57:29.094Z,103666.81
2024-01-11T03:59:57.431Z,103691.66
2024-01-11T04:02:24.534Z,103688.78
2024-01-11T04:04:51.769Z,103698.25
2024-01-11T04:07:18.772Z,103700.97
2024-01-11T04:09:46.628Z,103680.44
2024-01-11T04:12:14.343Z,103701.72
2024-01-11T04:14:42.125Z,103676.16
2024-01-11T04:17:09.461Z,103686.25
2024-01-11T04:19:37.833Z,103681.09
2024-01-11T04:22:06.118Z,103675.50
2024-01-11T04:24:33.207Z,103700.97
2024-01-11T04:27:03.505Z,103707.72
2024-01-11T04:29:30.625Z,103702.63
2024-01-11T04:31:59.763Z,103700.97
2024-01-11T04:34:26.972Z,103716.81
2024-01-11T04:36:54.003Z,103711.19
2024-01-11T04:39:21.987Z,103700.56
2024-01-11T04:41:49.767Z,103719.91
2024-01-11T04:44:18.257Z,103714.72
2024-01-11T04:46:45.585Z,103709.09
2024-01-11T04:49:13.622Z,103697.63
2024-01-11T04:51:40.901Z,103698.50
2024-01-11T04:54:08.184Z,103709.16
2024-01-11T04:56:35.879Z,103695.72
2024-01-11T04:59:04.544Z,103690.44
2024-01-11T05:01:32.105Z,103687.44
2024-01-11T05:03:59.735Z,103712.22
2024-01-11T05:06:29.718Z,103706.22
2024-01-11T05:08:56.915Z,103681.91
2024-01-11T05:11:27.736Z,103687.56
2024-01-11T05:13:55.695Z,103683.53
2024-01-11T05:16:25.194Z,103673.50
2024-01-11T05:18:53.954Z,103661.97
2024-01-11T05:21:22.454Z,103634.97
2024-01-11T05:23:50.084Z,103644.31
2024-01-11T05:26:18.403Z,103657.50
2024-01-11T05:28:47.058Z,103679.97
2024-01-11T05:31:17.053Z,103680.44
2024-01-11T05:33:47.099Z,103665.84
2024-01-11T05:36:14.343Z,103650.38
2024-01-11T05:38:43.322Z,103677.22
2024-01-11T05:41:10.839Z,103689.06
2024-01-11T05:43:39.230Z,103688.38
2024-01-11T05:46:06.320Z,103696.06
2024-01-11T05:48:33.378Z,103689.81
2024-01-11T05:51:01.424Z,103695.81
2024-01-11T05:53:29.543Z,103687.19
2024-01-11T05:55:56.920Z,103698.84
2024-01-11T05:58:23.937Z,103707.38
2024-01-11T06:00:51.248Z,103728.69
2024-01-11T06:03:18.432Z,103734.75
2024-01-11T06:05:46.493Z,103739.25
2024-01-11T06:08:13.938Z,103758.72
2024-01-11T06:10:43.746Z,103747.00
2024-01-11T06:13:11.421Z,103749.72
2024-01-11T06:15:59.227Z,103770.97
2024-01-11T06:18:29.746Z,103737.47
2024-01-11T06:20:57.172Z,103746.19
2024-01-11T06:23:26.518Z,103757.63
2024-01-11T06:25:54.137Z,103770.09
2024-01-11T06:28:21.100Z,103766.44
2024-01-11T06:31:11.441Z,103797.19
2024-01-11T06:33:39.094Z,103788.47
2024-01-11T06:36:08.922Z,103770.47
2024-01-11T06:38:36.036Z,103760.94
2024-01-11T06:41:03.129Z,103762.47
2024-01-11T06:43:30.323Z,103786.06
2024-01-11T06:45:58.607Z,103777.84
2024-01-11T06:48:25.775Z,103793.31
2024-01-11T06:50:53.633Z,103766.91
2024-01-11T06:53:21.321Z,103759.94
2024-01-11T06:55:48.962Z,103752.06
2024-01-11T06:58:19.281Z,103768.94
2024-01-11T07:00:46.580Z,103742.53
2024-01-11T07:03:46.775Z,103769.78
2024-01-11T07:06:17.373Z,103753.00
2024-01-11T07:08:46.713Z,103741.72
2024-01-11T07:12:03.034Z,103740.75
2024-01-11T07:14:32.567Z,103732.66
2024-01-11T07:17:00.869Z,103753.75
2024-01-11T07:19:28.043Z,103756.03
2024-01-11T07:21:59.489Z,103769.91
2024-01-11T07:24:26.628Z,103755.75
2024-01-11T07:27:07.894Z,103769.84
2024-01-11T07:29:36.562Z,103760.75
2024-01-11T07:32:13.056Z,103763.72
2024-01-11T07:34:40.068Z,103779.84
2024-01-11T07:37:07.114Z,103799.19
2024-01-11T07:39:34.300Z,103779.31
2024-01-11T07:42:05.036Z,103775.53
2024-01-11T07:44:33.537Z,103771.09
2024-01-11T07:47:05.560Z,103779.38
2024-01-11T07:49:32.401Z,103750.53
2024-01-11T07:51:59.875Z,103754.50
2024-01-11T07:54:28.131Z,103755.00
2024-01-11T07:57:04.490Z,103763.19
2024-01-11T07:59:37.726Z,103737.94
2024-01-11T08:02:12.429Z,103726.75
2024-01-11T08:04:40.446Z,103740.13
2024-01-11T08:07:31.905Z,103756.84
2024-01-11T08:10:00.047Z,103736.88
2024-01-11T08:12:28.496Z,103742.41
2024-01-11T08:15:08.064Z,103742.94
2024-01-11T08:17:49.079Z,103759.00
2024-01-11T08:20:17.283Z,103765.19
2024-01-11T08:22:44.637Z,103769.44
2024-01-11T08:25:11.865Z,103770.75
2024-01-11T08:27:39.357Z,103776.38
2024-01-11T08:30:07.015Z,103796.09
2024-01-11T08:32:40.997Z,103785.28
2024-01-11T08:35:11.333Z,103787.34
2024-01-11T08:37:39.440Z,103791.06
2024-01-11T08:40:08.107Z,103778.97
2024-01-11T08:42:37.062Z,103803.09
2024-01-11T08:45:08.152Z,103781.19
2024-01-11T08:47:36.319Z,103793.59
2024-01-11T08:50:07.745Z,103819.31
2024-01-11T08:52:35.227Z,103810.94
2024-01-11T08:55:02.864Z,103816.34
2024-01-11T08:57:30.741Z,103809.47
2024-01-11T08:59:58.428Z,103821.72
2024-01-11T09:02:43.203Z,103822.66
2024-01-11T09:05:13.413Z,103803.50
2024-01-11T09:07:43.883Z,103793.16
2024-01-11T09:10:15.042Z,103820.44
2024-01-11T09:12:42.016Z,103818.84
2024-01-11T09:15:09.300Z,103819.91
2024-01-11T09:17:36.933Z,103830.50
2024-01-11T09:20:04.434Z,103822.25
2024-01-11T09:22:34.039Z,103833.81
2024-01-11T09:25:01.350Z,103835.69
2024-01-11T09:27:28.391Z,103819.88
2024-01-11T09:29:57.172Z,103835.59
2024-01-11T09:32:24.887Z,103855.00
2024-01-11T09:34:52.415Z,103858.72
2024-01-11T09:37:29.303Z,103850.16
2024-01-11T09:39:56.439Z,103834.50
2024-01-11T09:42:23.832Z,103823.28
2024-01-11T09:44:51.613Z,103832.97
2024-01-11T09:47:20.952Z,103833.84
2024-01-11T09:49:52.407Z,103829.69
2024-01-11T09:52:51.831Z,103843.97
2024-01-11T09:55:19.899Z,103836.22
2024-01-11T09:57:54.300Z,103828.31
2024-01-11T10:00:25.487Z,103835.41
2024-01-11T10:02:53.468Z,103844.47
2024-01-11T10:05:21.301Z,103833.97
2024-01-11T10:07:48.898Z,103826.94
2024-01-11T10:10:18.564Z,103842.94
2024-01-11T10:12:45.888Z,103836.81
2024-01-11T10:15:16.240Z,103835.94
2024-01-11T10:18:02.984Z,103860.69
2024-01-11T10:20:31.644Z,103864.28
2024-01-11T10:22:59.109Z,103867.91
2024-01-11T10:25:26.603Z,103854.03
2024-01-11T10:27:53.709Z,103860.38
2024-01-11T10:30:21.726Z,103842.94
2024-01-11T10:32:49.501Z,103843.78
2024-01-11T10:35:18.896Z,103864.72
2024-01-11T10:37:47.486Z,103869.34
2024-01-11T10:40:16.948Z,103872.88
2024-01-11T10:42:45.366Z,103877.22
2024-01-11T10:45:18.623Z,103882.66
2024-01-11T10:48:08.508Z,103882.97
2024-01-11T10:50:43.552Z,103897.31
2024-01-11T10:53:38.859Z,103886.69
2024-01-11T10:56:11.290Z,103872.81
2024-01-11T10:58:41.039Z,103863.19
2024-01-11T11:01:18.802Z,103873.13
2024-01-11T11:03:47.598Z,103866.22
2024-01-11T11:06:22.044Z,103869.59
2024-01-11T11:08:52.883Z,103860.84
2024-01-11T11:11:20.664Z,103868.03
2024-01-11T11:14:22.992Z,103862.03
2024-01-11T11:16:48.086Z,103849.06
2024-01-11T11:19:16.138Z,103844.81
2024-01-11T11:21:55.186Z,103856.59
2024-01-11T11:24:22.356Z,103838.31
2024-01-11T11:26:51.643Z,103838.50
2024-01-11T11:29:20.141Z,103823.66
2024-01-11T11:31:49.204Z,103828.13
2024-01-11T11:34:16.454Z,103833.56
2024-01-11T11:36:53.627Z,103823.94
2024-01-11T11:39:23.066Z,103837.91
2024-01-11T11:42:06.778Z,103828.34
2024-01-11T11:44:34.973Z,103813.56
2024-01-11T11:47:25.290Z,103823.47
2024-01-11T11:50:22.781Z,103811.19
2024-01-11T11:52:56.611Z,103802.59
2024-01-11T11:55:25.440Z,103794.00
2024-01-11T11:57:55.811Z,103789.00
2024-01-11T12:00:22.873Z,103779.44
2024-01-11T12:02:50.755Z,103764.69
2024-01-11T12:05:20.116Z,103765.66
2024-01-11T12:07:48.559Z,103765.88
2024-01-11T12:10:17.440Z,103764.03
2024-01-11T12:12:48.305Z,103780.72
2024-01-11T12:15:30.652Z,103773.63
2024-01-11T12:18:02.357Z,103773.84
2024-01-11T12:20:30.401Z,103760.66
2024-01-11T12:22:58.305Z,103750.94
2024-01-11T12:25:28.797Z,103766.97
2024-01-11T12:27:56.432Z,103749.38
2024-01-11T12:30:38.164Z,103760.84
2024-01-11T12:33:09.297Z,103745.09
2024-01-11T12:35:42.743Z,103754.06
2024-01-11T12:38:12.858Z,103746.13
2024-01-11T12:40:43.302Z,103764.63
2024-01-11T12:43:10.341Z,103729.56
2024-01-11T12:45:38.843Z,103733.94
2024-01-11T12:48:09.046Z,103738.63
2024-01-11T12:50:37.162Z,103716.66
2024-01-11T12:53:31.889Z,103714.25
2024-01-11T12:56:12.256Z,103735.34
2024-01-11T12:58:49.108Z,103727.56
2024-01-11T13:02:04.323Z,103718.91
2024-01-11T13:04:35.482Z,103709.22
2024-01-11T13:07:02.681Z,103700.47
2024-01-11T13:09:30.641Z,103701.34
2024-01-11T13:12:01.767Z,103714.47
2024-01-11T13:14:30.237Z,103710.03
2024-01-11T13:17:09.576Z,103707.50
2024-01-11T13:19:37.167Z,103701.50
2024-01-11T13:22:16.202Z,103710.19
2024-01-11T13:24:44.947Z,103697.84
2024-01-11T13:27:18.928Z,103716.44
2024-01-11T13:29:46.523Z,103691.88
2024-01-11T13:32:29.153Z,103715.59
2024-01-11T13:35:00.670Z,103716.41
2024-01-11T13:40:25.564Z,103716.44
2024-01-11T13:42:52.588Z,103719.91
2024-01-11T13:45:30.356Z,103719.06
2024-01-11T13:47:58.255Z,103707.78
2024-01-11T13:50:45.632Z,103704.38
2024-01-11T13:53:18.090Z,103699.09
2024-01-11T13:55:58.624Z,103695.72
2024-01-11T13:58:34.969Z,103698.22
2024-01-11T14:01:07.843Z,103694.69
2024-01-11T14:03:36.356Z,103683.31
2024-01-11T14:06:22.728Z,103687.78
2024-01-11T14:08:50.024Z,103689.59
2024-01-11T14:12:01.078Z,103695.72
2024-01-11T14:14:31.766Z,103695.78
2024-01-11T14:17:09.639Z,103698.44
2024-01-11T14:19:36.689Z,103696.72
2024-01-11T14:22:03.674Z,103687.03
2024-01-11T14:24:36.222Z,103692.31
2024-01-11T14:27:04.140Z,103695.84
2024-01-11T14:29:32.288Z,103684.59
2024-01-11T14:32:00.910Z,103686.34
2024-01-11T14:34:31.252Z,103683.00
2024-01-11T14:37:17.458Z,103676.91
2024-01-11T14:39:44.447Z,103675.97
2024-01-11T14:42:27.437Z,103688.19
2024-01-11T14:44:54.781Z,103683.78
2024-01-11T14:47:27.099Z,103682.97
2024-01-11T14:49:54.318Z,103675.13
2024-01-11T14:52:34.388Z,103681.25
2024-01-11T14:55:01.430Z,103676.91
2024-01-11T14:57:50.104Z,103670.84
2024-01-11T15:00:18.916Z,103673.41
2024-01-11T15:02:52.998Z,103680.50
2024-01-11T15:05:29.929Z,103680.50
2024-01-11T15:07:57.200Z,103674.34
2024-01-11T15:10:50.086Z,103687.44
2024-01-11T15:13:17.471Z,103688.34
2024-01-11T15:15:46.913Z,103692.56
2024-01-11T15:18:14.638Z,103691.72
2024-01-11T15:21:04.112Z,103687.28
2024-01-11T15:23:36.000Z,103688.00
2024-01-11T15:26:11.919Z,103686.41
2024-01-11T15:28:42.220Z,103689.88
2024-01-11T15:31:49.552Z,103672.31
2024-01-11T15:34:16.707Z,103657.38
2024-01-11T15:36:53.962Z,103675.78
2024-01-11T15:39:27.953Z,103669.69
2024-01-11T15:42:00.343Z,103675.00
2024-01-11T15:44:35.407Z,103668.72
2024-01-11T15:47:02.125Z,103672.28
2024-01-11T15:49:38.505Z,103652.13
2024-01-11T15:52:06.362Z,103659.19
2024-01-11T15:54:33.724Z,103642.59
2024-01-11T15:57:08.280Z,103658.38
2024-01-11T15:59:35.542Z,103670.50
2024-01-11T16:02:07.479Z,103661.75
2024-01-11T16:04:37.200Z,103666.97
2024-01-11T16:09:54.196Z,103660.00
2024-01-11T16:12:25.275Z,103647.81
2024-01-11T16:14:52.878Z,103660.03
2024-01-11T16:17:35.413Z,103660.94
2024-01-11T16:20:04.589Z,103672.25
2024-01-11T16:22:35.206Z,103669.63
2024-01-11T16:25:03.073Z,103674.09
2024-01-11T16:27:45.573Z,103673.28
2024-01-11T16:33:57.467Z,103669.94
2024-01-11T16:36:37.390Z,103673.41
2024-01-11T16:39:11.003Z,103658.53
2024-01-11T16:42:01.067Z,103661.25
2024-01-11T16:44:29.799Z,103670.94
2024-01-11T16:47:06.181Z,103664.84
2024-01-11T16:49:35.619Z,103665.88
2024-01-11T16:52:06.955Z,103669.38
2024-01-11T16:54:34.342Z,103680.88
2024-01-11T16:57:01.940Z,103681.81
2024-01-11T16:59:29.161Z,103680.25
2024-01-11T17:01:59.053Z,103677.88
2024-01-11T17:04:26.450Z,103665.66
2024-01-11T17:06:53.926Z,103671.13
2024-01-11T17:09:20.666Z,103666.81
2024-01-11T17:14:31.341Z,103671.41
2024-01-11T17:16:58.329Z,103661.75
2024-01-11T17:19:25.108Z,103659.16
2024-01-11T17:21:52.277Z,103658.25
2024-01-11T17:24:19.373Z,103647.03
2024-01-11T17:26:47.661Z,103652.25
2024-01-11T17:29:15.368Z,103651.38
2024-01-11T17:31:46.493Z,103661.88
2024-01-11T17:34:13.989Z,103645.16
2024-01-11T17:37:32.263Z,103652.19
2024-01-11T17:39:59.403Z,103655.72
2024-01-11T17:42:26.960Z,103653.13
2024-01-11T17:44:56.037Z,103656.59
2024-01-11T17:47:23.262Z,103657.47
2024-01-11T17:49:50.385Z,103659.25
2024-01-11T17:52:18.349Z,103663.59
2024-01-11T17:54:45.472Z,103659.25
2024-01-11T17:57:12.956Z,103672.38
2024-01-11T17:59:40.190Z,103660.09
2024-01-11T18:02:06.964Z,103678.47
2024-01-11T18:04:33.953Z,103674.97
2024-01-11T18:07:02.244Z,103676.72
2024-01-11T18:09:29.424Z,103679.34
2024-01-11T18:11:56.705Z,103673.19
2024-01-11T18:14:24.056Z,103674.97
2024-01-11T18:16:52.888Z,103674.09
2024-01-11T18:19:19.737Z,103660.91
2024-01-11T18:21:47.409Z,103667.91
2024-01-11T18:24:16.227Z,103668.78
2024-01-11T18:26:45.008Z,103667.91
2024-01-11T18:29:12.443Z,103661.84
2024-01-11T18:32:04.871Z,103661.81
2024-01-11T18:34:35.403Z,103664.50
2024-01-11T18:37:21.563Z,103668.00
2024-01-11T18:39:48.546Z,103670.63
2024-01-11T18:42:16.403Z,103667.13
2024-01-11T18:44:43.674Z,103674.94
2024-01-11T18:47:13.806Z,103662.69
2024-01-11T18:49:40.828Z,103674.13
2024-01-11T18:52:07.783Z,103676.75
2024-01-11T18:54:35.400Z,103671.44
2024-01-11T18:57:04.539Z,103664.38
2024-01-11T18:59:35.810Z,103660.91
2024-01-11T19:02:09.941Z,103668.81
2024-01-11T19:04:39.469Z,103672.34
2024-01-11T19:07:07.395Z,103650.44
2024-01-11T19:09:35.011Z,103666.19
2024-01-11T19:12:05.566Z,103674.88
2024-01-11T19:14:34.353Z,103663.50
2024-01-11T19:17:14.377Z,103677.53
2024-01-11T19:19:44.402Z,103657.34
2024-01-11T19:22:20.056Z,103678.44
2024-01-11T19:24:47.816Z,103668.75
2024-01-11T19:27:15.434Z,103659.97
2024-01-11T19:29:43.110Z,103673.88
2024-01-11T19:32:10.218Z,103688.81
2024-01-11T19:34:38.981Z,103680.13
2024-01-11T19:37:06.436Z,103692.38
2024-01-11T19:39:33.648Z,103678.25
2024-01-11T19:42:04.467Z,103695.84
2024-01-11T19:44:32.480Z,103674.88
2024-01-11T19:47:02.602Z,103677.50
2024-01-11T19:49:29.986Z,103688.06
2024-01-11T19:51:59.893Z,103692.47
2024-01-11T19:54:30.869Z,103677.59
2024-01-11T19:56:59.038Z,103675.78
2024-01-11T19:59:26.623Z,103702.13
2024-01-11T20:01:59.415Z,103701.28
2024-01-11T20:04:27.486Z,103695.16
2024-01-11T20:06:56.974Z,103711.78
2024-01-11T20:09:23.991Z,103701.22
2024-01-11T20:11:51.885Z,103701.25
2024-01-11T20:14:19.120Z,103720.56
2024-01-11T20:16:50.721Z,103713.56
2024-01-11T20:19:19.484Z,103704.78
2024-01-11T20:21:46.757Z,103718.84
2024-01-11T20:24:14.056Z,103710.94
2024-01-11T20:26:41.455Z,103703.00
2024-01-11T20:29:08.312Z,103701.25
2024-01-11T20:31:35.513Z,103717.88
2024-01-11T20:34:03.489Z,103700.34
2024-01-11T20:36:31.627Z,103712.63
2024-01-11T20:38:58.534Z,103709.19
2024-01-11T20:41:26.698Z,103721.47
2024-01-11T20:43:54.595Z,103722.28
2024-01-11T20:46:23.247Z,103716.09
2024-01-11T20:48:50.990Z,103704.75
2024-01-11T20:51:24.638Z,103718.00
2024-01-11T20:53:56.303Z,103724.06
2024-01-11T20:56:24.992Z,103728.47
2024-01-11T20:58:52.442Z,103720.56
2024-01-11T21:01:23.151Z,103732.84
2024-01-11T21:03:50.831Z,103730.22
2024-01-11T21:06:18.240Z,103738.13
2024-01-11T21:08:45.864Z,103734.56
2024-01-11T21:11:18.322Z,103740.75
2024-01-11T21:13:45.303Z,103728.53
2024-01-11T21:16:12.658Z,103735.56
2024-01-11T21:18:39.582Z,103732.91
2024-01-11T21:21:06.877Z,103726.78
2024-01-11T21:23:34.117Z,103716.16
2024-01-11T21:26:01.336Z,103724.94
2024-01-11T21:28:28.405Z,103742.44
2024-01-11T21:30:56.577Z,103728.41
2024-01-11T21:33:23.811Z,103726.75
2024-01-11T21:35:52.601Z,103738.09
2024-01-11T21:38:19.398Z,103730.19
2024-01-11T21:40:46.303Z,103722.41
2024-01-11T21:43:13.355Z,103725.91
2024-01-11T21:45:42.836Z,103720.63
2024-01-11T21:48:10.012Z,103721.47
2024-01-11T21:50:39.391Z,103712.78
2024-01-11T21:53:06.619Z,103717.19
2024-01-11T21:55:33.914Z,103723.38
2024-01-11T21:58:00.705Z,103717.25
2024-01-11T22:00:27.493Z,103712.84
2024-01-11T22:02:54.937Z,103722.56
2024-01-11T22:05:22.724Z,103718.09
2024-01-11T22:07:50.422Z,103717.19
2024-01-11T22:10:17.227Z,103719.81
2024-01-11T22:12:44.179Z,103724.13
2024-01-11T22:15:11.785Z,103726.69
2024-01-11T22:17:38.968Z,103735.50
2024-01-11T22:20:10.402Z,103732.00
2024-01-11T22:22:37.404Z,103736.31
2024-01-11T22:25:04.519Z,103726.59
2024-01-11T22:27:31.681Z,103735.28
2024-01-11T22:29:59.373Z,103737.06
2024-01-11T22:32:26.133Z,103738.78
2024-01-11T22:34:54.822Z,103750.16
2024-01-11T22:37:21.513Z,103753.72
2024-01-11T22:39:48.229Z,103754.56
2024-01-11T22:42:15.935Z,103745.84
2024-01-11T22:44:44.911Z,103754.56
2024-01-11T22:47:12.678Z,103748.47
2024-01-11T22:49:42.242Z,103749.28
2024-01-11T22:52:10.830Z,103741.31
2024-01-11T22:54:41.664Z,103738.66
2024-01-11T22:57:10.801Z,103737.84
2024-01-11T22:59:38.159Z,103732.59
2024-01-11T23:02:06.041Z,103728.16
2024-01-11T23:04:34.691Z,103722.78
2024-01-11T23:07:02.169Z,103733.38
2024-01-11T23:09:29.156Z,103728.03
2024-01-11T23:11:58.189Z,103748.16
2024-01-11T23:14:25.125Z,103743.88
2024-01-11T23:16:53.422Z,103746.38
2024-01-11T23:19:20.389Z,103739.41
2024-01-11T23:21:48.919Z,103748.94
2024-01-11T23:24:15.605Z,103735.09
2024-01-11T23:26:42.597Z,103742.09
2024-01-11T23:29:09.668Z,103748.16
2024-01-11T23:31:39.079Z,103740.25
2024-01-11T23:34:06.038Z,103736.84
2024-01-11T23:36:33.254Z,103747.44
2024-01-11T23:39:01.329Z,103741.34
2024-01-11T23:41:29.491Z,103738.66
2024-01-11T23:43:56.930Z,103741.34
2024-01-11T23:46:23.830Z,103743.16
2024-01-11T23:48:50.935Z,103742.28
2024-01-11T23:51:18.343Z,103733.59
2024-01-11T23:53:45.726Z,103740.69
2024-01-11T23:56:14.041Z,103736.31
2024-01-11T23:58:41.826Z,103731.06
